Terminal Aerodrome Forecast
Issued by NWS

Current Version | Previous Version | Text Only | Print | Product List | Glossary On
Versions: 1 2 3 4 5 6 7 8 9 10 11 12 13 14 15 16
000
FTAK31 PANC 261857 AAA
TAFADQ
TAF AMD
PADQ 261857Z 2619/2718 35012KT P6SM -RA SCT015 OVC035
      TEMPO 2619/2622 2SM -RA BR BKN015
     FM270600 34010G18KT P6SM -RA SCT025 OVC050
     FM271200 01014G22KT 6SM -RA SCT015 OVC025=

USA.gov is the U.S. government's official web portal to all federal, state and local government web resources and services.